Time;durP1;ratioP1;P1;durP2;ratioP2;P2;SDS_P1;SDS_P2;PMS_P1;PMS_P2;Temp;Humidity;BMP_temperature;BMP_pressure;BME280_temperature;BME280_humidity;BME280_pressure;Samples;Min_cycle;Max_cycle;Signal;HPM_P1;HPM_P2
2022/05/24 00:00:58;;;;;;;4.05;2.08;;;;;;;16.92;53.19;99366.75;5014407;28;20105;-80
2022/05/24 00:03:25;;;;;;;3.05;2.28;;;;;;;16.95;53.59;99369.19;5031783;28;20037;-79
2022/05/24 00:05:52;;;;;;;5.85;2.13;;;;;;;16.88;53.11;99358.09;5033985;28;20041;-80
2022/05/24 00:08:18;;;;;;;5.32;2.30;;;;;;;16.91;53.50;99354.38;5023723;28;20092;-80
2022/05/24 00:10:45;;;;;;;3.22;2.20;;;;;;;16.90;53.79;99363.34;5014250;28;20045;-80
2022/05/24 00:13:11;;;;;;;2.78;2.22;;;;;;;16.90;53.97;99350.00;5037280;28;20037;-80
2022/05/24 00:15:38;;;;;;;5.35;2.30;;;;;;;16.85;53.93;99342.28;5027707;28;20064;-80
2022/05/24 00:18:19;;;;;;;3.70;2.53;;;;;;;16.88;53.90;99338.56;5018201;28;20040;-80
2022/05/24 00:20:48;;;;;;;3.05;2.03;;;;;;;16.84;54.13;99337.06;5032001;28;20045;-78
2022/05/24 00:23:16;;;;;;;4.50;2.35;;;;;;;16.84;54.13;99337.06;5024315;28;20056;-81
2022/05/24 00:25:45;;;;;;;2.92;1.80;;;;;;;16.80;54.42;99336.41;5061010;22;20041;-79
2022/05/24 00:28:13;;;;;;;3.03;2.10;;;;;;;16.81;54.14;99326.59;5021105;28;20041;-78
2022/05/24 00:30:40;;;;;;;3.47;2.17;;;;;;;16.74;53.78;99338.66;5001771;28;20128;-80
2022/05/24 00:33:07;;;;;;;2.80;2.38;;;;;;;16.76;54.06;99336.72;5025802;28;20042;-79
2022/05/24 00:35:34;;;;;;;4.20;2.25;;;;;;;16.77;53.88;99331.28;5038720;23;20081;-80
2022/05/24 00:38:00;;;;;;;2.72;2.00;;;;;;;16.75;54.09;99333.19;4979580;28;20046;-79
2022/05/24 00:40:40;;;;;;;5.70;2.63;;;;;;;16.70;53.93;99324.66;4966312;28;20053;-80
2022/05/24 00:43:13;;;;;;;4.25;2.47;;;;;;;16.74;54.64;99331.50;5010294;28;20034;-78
2022/05/24 00:45:44;;;;;;;2.88;2.08;;;;;;;16.75;54.75;99327.03;5026389;28;20096;-78
2022/05/24 00:48:22;;;;;;;3.25;2.15;;;;;;;16.73;54.33;99321.78;5009030;28;20467;-78
2022/05/24 00:50:51;;;;;;;3.78;2.35;;;;;;;16.68;54.35;99326.53;4992191;28;20049;-78
2022/05/24 00:53:37;;;;;;;3.00;2.25;;;;;;;16.72;54.25;99317.38;4994279;28;20041;-79
2022/05/24 00:56:19;;;;;;;3.08;2.40;;;;;;;16.68;54.80;99313.19;4992202;28;20049;-78
2022/05/24 00:58:59;;;;;;;2.60;2.20;;;;;;;16.66;54.87;99306.28;4996052;28;20052;-80
2022/05/24 01:01:36;;;;;;;4.50;2.10;;;;;;;16.67;55.05;99308.81;5002564;28;20049;-79
2022/05/24 01:04:04;;;;;;;5.53;2.50;;;;;;;16.64;54.78;99313.50;5009803;28;20038;-80
2022/05/24 01:06:31;;;;;;;3.13;2.47;;;;;;;16.65;54.84;99309.88;4996235;28;20034;-80
2022/05/24 01:08:59;;;;;;;3.30;2.30;;;;;;;16.65;55.27;99317.88;4988994;28;20054;-82
2022/05/24 01:11:27;;;;;;;3.10;2.50;;;;;;;16.66;54.88;99314.28;5008215;28;20053;-79
2022/05/24 01:13:54;;;;;;;2.40;2.08;;;;;;;16.62;54.63;99313.59;4995969;28;20129;-81
2022/05/24 01:16:21;;;;;;;2.58;2.08;;;;;;;16.61;55.32;99318.09;4992054;28;20042;-79
2022/05/24 01:18:48;;;;;;;3.45;2.67;;;;;;;16.56;55.40;99322.88;5021108;28;20039;-86
2022/05/24 01:21:16;;;;;;;4.20;1.95;;;;;;;16.54;55.57;99310.59;5035878;28;20053;-84
2022/05/24 01:24:02;;;;;;;3.17;2.33;;;;;;;16.52;55.74;99313.38;4982213;28;20081;-84
2022/05/24 01:26:49;;;;;;;3.30;2.33;;;;;;;16.47;55.45;99320.78;5034326;28;20048;-83
2022/05/24 01:29:17;;;;;;;3.03;2.30;;;;;;;16.52;56.53;99302.69;5015964;28;20052;-79
2022/05/24 01:37:17;;;;;;;3.22;2.20;;;;;;;16.46;56.45;99312.91;5015245;28;20038;-82
2022/05/24 01:39:46;;;;;;;4.78;2.13;;;;;;;16.43;56.69;99321.97;4996444;28;20042;-80
2022/05/24 01:42:13;;;;;;;3.78;2.13;;;;;;;16.46;56.54;99311.09;4995188;28;20042;-83
2022/05/24 01:44:52;;;;;;;3.15;2.42;;;;;;;16.46;57.14;99310.25;5000787;28;20043;-80
2022/05/24 01:47:19;;;;;;;5.05;2.40;;;;;;;16.42;57.24;99322.06;5038690;28;20074;-85
2022/05/24 01:49:51;;;;;;;2.83;2.40;;;;;;;16.39;56.75;99319.59;5016772;28;20038;-80
2022/05/24 01:52:21;;;;;;;3.95;2.78;;;;;;;16.41;56.84;99318.56;5022998;28;20038;-83
2022/05/24 01:54:53;;;;;;;3.40;2.50;;;;;;;16.42;57.04;99325.59;5007438;28;20046;-81
2022/05/24 01:57:25;;;;;;;3.55;2.22;;;;;;;16.39;57.08;99316.94;4999795;28;20042;-85
2022/05/24 01:59:53;;;;;;;3.78;2.38;;;;;;;16.44;57.42;99309.50;5007295;28;20072;-82
2022/05/24 02:02:20;;;;;;;3.40;2.50;;;;;;;16.36;57.31;99311.81;5001284;28;20406;-83
2022/05/24 02:04:46;;;;;;;3.17;2.05;;;;;;;16.39;57.43;99308.94;5002703;28;20060;-82
2022/05/24 02:07:18;;;;;;;3.63;3.20;;;;;;;16.42;57.60;99311.41;5016800;28;20557;-81
2022/05/24 02:09:47;;;;;;;4.05;2.47;;;;;;;16.29;58.15;99311.34;4988586;28;20642;-80
2022/05/24 02:12:29;;;;;;;3.03;2.15;;;;;;;16.33;58.02;99304.88;5019240;28;20056;-82
2022/05/24 02:15:05;;;;;;;3.17;2.30;;;;;;;16.32;57.94;99301.38;5012027;28;20061;-82
2022/05/24 02:17:40;;;;;;;7.53;2.83;;;;;;;16.32;58.12;99316.50;5021896;28;20041;-83
2022/05/24 02:20:09;;;;;;;4.25;2.30;;;;;;;16.38;58.55;99307.22;5024226;28;20038;-80
2022/05/24 02:22:37;;;;;;;3.97;2.38;;;;;;;16.33;59.07;99292.41;5030359;28;20041;-80
2022/05/24 02:25:07;;;;;;;7.13;2.83;;;;;;;16.31;58.66;99298.78;5001501;28;20049;-79
2022/05/24 02:27:39;;;;;;;3.38;2.78;;;;;;;16.30;58.63;99305.91;5017793;28;20103;-81
2022/05/24 02:30:06;;;;;;;4.45;2.28;;;;;;;16.26;59.08;99301.75;5022977;28;20258;-80
2022/05/24 02:32:32;;;;;;;3.17;2.60;;;;;;;16.26;58.96;99295.56;5004502;28;20053;-79
2022/05/24 02:34:59;;;;;;;3.47;2.38;;;;;;;16.21;59.88;99303.00;5002315;28;20407;-79
2022/05/24 02:37:26;;;;;;;3.55;2.47;;;;;;;16.23;59.33;99296.63;5007577;28;20097;-84
2022/05/24 02:42:38;;;;;;;3.08;2.75;;;;;;;16.35;59.16;99294.97;5004638;28;20155;-80
2022/05/24 02:45:05;;;;;;;4.40;2.53;;;;;;;16.29;59.28;99306.03;5010743;28;20148;-81
2022/05/24 02:47:32;;;;;;;3.05;2.40;;;;;;;16.33;59.44;99304.88;5017293;28;20100;-82
2022/05/24 02:49:58;;;;;;;3.40;2.65;;;;;;;16.35;59.15;99302.09;5036205;28;20041;-83
2022/05/24 02:52:25;;;;;;;3.90;2.95;;;;;;;16.40;59.52;99298.19;5017615;28;20057;-83
2022/05/24 02:54:52;;;;;;;3.35;2.50;;;;;;;16.34;59.69;99303.91;5026991;28;20022;-83
2022/05/24 02:57:18;;;;;;;5.35;2.88;;;;;;;16.33;60.79;99305.72;4984628;28;20618;-82
2022/05/24 02:59:45;;;;;;;4.05;2.60;;;;;;;16.34;60.57;99303.91;5004799;28;20503;-79
2022/05/24 03:02:11;;;;;;;3.33;2.67;;;;;;;16.33;61.66;99304.88;5010023;28;20045;-79
2022/05/24 03:04:38;;;;;;;4.15;3.10;;;;;;;16.29;61.90;99308.69;5011179;28;20068;-80
2022/05/24 03:09:50;;;;;;;3.40;2.50;;;;;;;16.15;63.15;99304.28;5013161;28;20042;-80
2022/05/24 03:15:05;;;;;;;4.18;3.10;;;;;;;16.18;67.21;99304.06;5011447;28;20510;-79
2022/05/24 03:17:31;;;;;;;3.67;2.85;;;;;;;16.16;69.55;99303.31;4991717;28;20042;-81
2022/05/24 03:19:58;;;;;;;4.40;2.85;;;;;;;16.01;68.62;99304.31;4981436;28;20050;-81
2022/05/24 03:22:25;;;;;;;5.28;3.15;;;;;;;15.97;71.38;99305.44;4973933;28;20053;-81
2022/05/24 03:24:51;;;;;;;4.13;3.50;;;;;;;15.86;71.46;99314.13;4991725;28;20423;-81
2022/05/24 03:27:18;;;;;;;3.35;3.05;;;;;;;15.80;74.35;99309.19;4988942;28;20414;-81
2022/05/24 03:29:46;;;;;;;4.43;3.53;;;;;;;15.65;73.04;99308.34;4994018;28;20129;-81
2022/05/24 03:32:15;;;;;;;4.82;3.22;;;;;;;15.62;79.31;99311.19;4997663;28;20038;-85
2022/05/24 03:34:42;;;;;;;3.55;3.20;;;;;;;15.59;84.17;99303.38;4989101;28;20100;-81
2022/05/24 03:37:09;;;;;;;4.70;2.97;;;;;;;15.48;82.95;99311.19;5004626;28;20134;-83
2022/05/24 03:39:36;;;;;;;5.32;3.58;;;;;;;15.42;84.96;99304.44;5026029;28;20038;-81
2022/05/24 03:42:04;;;;;;;5.25;3.80;;;;;;;15.40;87.46;99302.81;4984301;28;20037;-83
2022/05/24 03:44:30;;;;;;;4.38;3.20;;;;;;;15.27;86.32;99318.66;5008465;28;20030;-81
2022/05/24 03:46:58;;;;;;;5.63;3.60;;;;;;;15.27;88.98;99310.69;4991323;28;20048;-81
2022/05/24 03:49:24;;;;;;;3.88;3.42;;;;;;;15.23;89.23;99316.31;4973474;28;20054;-81
2022/05/24 03:51:51;;;;;;;3.97;3.40;;;;;;;15.11;89.27;99323.19;5017261;28;20069;-81
2022/05/24 03:54:18;;;;;;;5.82;3.45;;;;;;;15.05;92.27;99328.88;4976332;28;20044;-82
2022/05/24 03:59:31;;;;;;;4.93;4.25;;;;;;;15.16;90.34;99323.78;5008838;28;20044;-81
2022/05/24 04:01:57;;;;;;;5.57;4.00;;;;;;;15.14;90.11;99323.91;4992742;28;20136;-80
2022/05/24 04:04:24;;;;;;;4.85;3.22;;;;;;;15.10;90.96;99327.66;4989947;28;20125;-80
2022/05/24 04:06:51;;;;;;;4.25;3.70;;;;;;;15.19;89.04;99329.78;4998215;28;20038;-81
2022/05/24 04:09:17;;;;;;;4.28;3.67;;;;;;;15.20;88.92;99338.59;4980875;28;20042;-81
2022/05/24 04:11:44;;;;;;;4.93;3.50;;;;;;;15.29;87.51;99326.56;4993182;28;20038;-81
2022/05/24 04:14:10;;;;;;;5.65;3.90;;;;;;;15.21;89.04;99337.66;5019093;28;20156;-83
2022/05/24 04:16:37;;;;;;;5.25;3.75;;;;;;;15.28;88.07;99335.50;5009457;28;20041;-80
2022/05/24 04:19:04;;;;;;;3.88;3.47;;;;;;;15.19;88.17;99337.75;4990195;28;20038;-80
2022/05/24 04:21:32;;;;;;;8.20;3.95;;;;;;;15.28;88.85;99344.31;5011438;28;20041;-80
2022/05/24 04:23:58;;;;;;;4.53;3.35;;;;;;;15.32;89.46;99337.03;5001496;28;20038;-80
2022/05/24 04:26:25;;;;;;;5.38;4.68;;;;;;;15.38;87.47;99341.94;4995804;28;20470;-81
2022/05/24 04:28:52;;;;;;;5.70;3.95;;;;;;;15.40;88.29;99342.75;5010705;28;20483;-81
2022/05/24 04:31:18;;;;;;;5.47;3.80;;;;;;;15.38;87.62;99347.28;5011174;28;20053;-81
2022/05/24 04:33:45;;;;;;;5.75;3.95;;;;;;;15.42;89.98;99347.00;4995768;28;20158;-82
2022/05/24 04:36:12;;;;;;;4.72;3.85;;;;;;;15.32;90.78;99342.34;4997835;28;20052;-80
2022/05/24 04:38:39;;;;;;;4.80;3.80;;;;;;;15.43;92.44;99350.53;4996555;28;20473;-80
2022/05/24 04:43:50;;;;;;;4.97;3.97;;;;;;;15.36;91.60;99347.38;5012247;28;20068;-81
2022/05/24 04:46:17;;;;;;;6.35;4.07;;;;;;;15.35;92.48;99355.47;4996631;28;20092;-79
2022/05/24 04:48:44;;;;;;;4.63;3.65;;;;;;;15.25;93.75;99356.97;4992021;28;20038;-84
2022/05/24 04:51:11;;;;;;;6.63;3.78;;;;;;;15.19;94.12;99352.88;4994810;28;20042;-80
2022/05/24 04:53:38;;;;;;;5.40;4.07;;;;;;;15.17;93.43;99360.94;4996872;28;20048;-80
2022/05/24 04:56:05;;;;;;;6.45;4.40;;;;;;;15.18;95.25;99362.66;5015014;28;20037;-80
2022/05/24 04:58:32;;;;;;;4.88;4.10;;;;;;;15.17;96.03;99355.63;5018796;28;20136;-82
2022/05/24 05:00:58;;;;;;;4.72;4.30;;;;;;;15.16;95.05;99361.91;5017766;28;20057;-81
2022/05/24 05:03:25;;;;;;;5.53;4.20;;;;;;;15.13;97.63;99367.41;4994866;28;20800;-80
2022/05/24 05:05:52;;;;;;;5.00;4.30;;;;;;;15.12;97.23;99363.00;5002388;28;20109;-83
2022/05/24 05:08:19;;;;;;;5.43;4.32;;;;;;;15.19;98.25;99369.69;5013884;28;20149;-80
2022/05/24 05:10:47;;;;;;;4.80;4.28;;;;;;;15.06;99.03;99371.38;5013161;28;20052;-80
2022/05/24 05:13:15;;;;;;;5.07;4.57;;;;;;;15.07;100.00;99373.09;4991493;28;20514;-81
2022/05/24 05:15:42;;;;;;;6.38;4.28;;;;;;;15.06;100.00;99370.53;5002163;28;20050;-81
2022/05/24 05:18:14;;;;;;;7.40;5.00;;;;;;;15.02;100.00;99377.81;5012831;28;20038;-81
2022/05/24 05:20:41;;;;;;;4.93;4.43;;;;;;;15.01;100.00;99376.09;5024409;28;20416;-80
2022/05/24 05:23:10;;;;;;;5.45;4.53;;;;;;;14.94;100.00;99374.75;5005532;28;20049;-79
2022/05/24 05:25:38;;;;;;;8.45;4.70;;;;;;;14.94;100.00;99369.44;5022386;28;20033;-81
2022/05/24 05:28:05;;;;;;;6.10;4.90;;;;;;;14.87;100.00;99384.03;4996338;28;20555;-83
2022/05/24 05:33:17;;;;;;;7.47;4.57;;;;;;;14.90;100.00;99379.41;4997101;28;20053;-81
2022/05/24 05:35:46;;;;;;;5.20;4.70;;;;;;;14.88;100.00;99397.25;5019165;28;20439;-79
2022/05/24 05:38:13;;;;;;;5.28;4.75;;;;;;;14.85;100.00;99394.75;5017865;28;20037;-80
2022/05/24 05:40:39;;;;;;;9.52;5.30;;;;;;;14.88;100.00;99399.91;5000233;28;20048;-80
2022/05/24 05:43:06;;;;;;;7.32;5.03;;;;;;;14.85;100.00;99405.38;5005099;28;20525;-80
2022/05/24 05:45:33;;;;;;;5.57;4.97;;;;;;;14.82;100.00;99408.25;5000384;28;20050;-85
2022/05/24 05:48:00;;;;;;;7.38;5.15;;;;;;;14.73;100.00;99418.56;5005446;28;20034;-81
2022/05/24 05:50:26;;;;;;;5.97;5.38;;;;;;;14.65;100.00;99424.31;5004039;28;20030;-81
2022/05/24 05:52:53;;;;;;;6.85;5.45;;;;;;;14.58;100.00;99426.44;5007052;28;20108;-81
2022/05/24 05:55:20;;;;;;;6.95;6.22;;;;;;;14.48;100.00;99433.22;4990492;28;20049;-81
2022/05/24 05:57:47;;;;;;;8.23;6.60;;;;;;;14.49;100.00;99439.41;4994142;28;20066;-81
2022/05/24 06:00:14;;;;;;;7.25;5.72;;;;;;;14.38;100.00;99442.63;5011614;28;20049;-80
2022/05/24 06:02:41;;;;;;;6.93;6.22;;;;;;;14.42;100.00;99451.28;5009408;28;20046;-80
2022/05/24 06:05:10;;;;;;;7.57;6.88;;;;;;;14.40;100.00;99448.72;4996023;28;20060;-80
2022/05/24 06:07:37;;;;;;;7.65;6.32;;;;;;;14.40;100.00;99450.50;4993434;28;22004;-81
2022/05/24 06:10:07;;;;;;;8.35;7.00;;;;;;;14.35;100.00;99456.06;5011283;28;20050;-80
2022/05/24 06:12:34;;;;;;;8.15;7.03;;;;;;;14.44;100.00;99455.56;4993759;28;20128;-82
2022/05/24 06:15:00;;;;;;;9.20;7.07;;;;;;;14.41;100.00;99461.03;5013720;28;20046;-80
2022/05/24 06:17:28;;;;;;;8.57;6.32;;;;;;;14.59;100.00;99456.53;5009906;28;20045;-81
2022/05/24 06:19:58;;;;;;;7.43;6.25;;;;;;;14.58;100.00;99455.69;4992827;28;20056;-82
2022/05/24 06:22:25;;;;;;;7.78;6.22;;;;;;;14.67;100.00;99461.44;4993852;28;20034;-81
2022/05/24 06:24:52;;;;;;;10.20;6.38;;;;;;;14.80;100.00;99459.81;5011974;28;20046;-81
2022/05/24 06:27:20;;;;;;;8.32;5.80;;;;;;;14.87;100.00;99471.78;5010821;28;20041;-80
2022/05/24 06:29:47;;;;;;;6.78;5.22;;;;;;;15.03;100.00;99475.28;4995130;28;20069;-82
2022/05/24 06:32:13;;;;;;;6.53;5.80;;;;;;;15.09;100.00;99485.56;4977899;28;20048;-81
2022/05/24 06:34:40;;;;;;;7.35;5.70;;;;;;;15.16;100.00;99484.28;4994216;28;20495;-81
2022/05/24 06:37:07;;;;;;;6.25;5.50;;;;;;;15.19;100.00;99480.56;4986418;28;20050;-81
2022/05/24 06:39:33;;;;;;;6.95;5.63;;;;;;;15.20;100.00;99480.47;4990500;28;20038;-80
2022/05/24 06:42:00;;;;;;;5.78;5.10;;;;;;;15.34;100.00;99484.16;4993691;28;20073;-80
2022/05/24 06:44:27;;;;;;;7.05;5.50;;;;;;;15.50;100.00;99482.28;5000969;28;20050;-80
2022/05/24 06:46:54;;;;;;;7.53;5.18;;;;;;;15.66;100.00;99485.78;5011430;28;20033;-80
2022/05/24 06:49:21;;;;;;;5.25;4.32;;;;;;;15.77;100.00;99487.78;5051974;23;20038;-79
2022/05/24 06:51:47;;;;;;;7.28;5.00;;;;;;;15.77;100.00;99493.97;5012859;28;20092;-80
2022/05/24 06:54:14;;;;;;;7.78;5.15;;;;;;;15.81;100.00;99505.31;5012925;28;20403;-79
2022/05/24 06:56:40;;;;;;;6.40;4.70;;;;;;;15.81;100.00;99509.75;5013336;28;20042;-79
2022/05/24 07:02:25;;;;;;;6.72;5.32;;;;;;;15.70;100.00;99519.25;5001420;28;20045;-79
2022/05/24 07:05:19;;;;;;;7.05;5.57;;;;;;;15.64;100.00;99529.44;5012142;28;20380;-81
2022/05/24 07:07:46;;;;;;;8.25;4.80;;;;;;;15.61;100.00;99532.25;4994325;28;20636;-80
2022/05/24 07:10:15;;;;;;;10.80;6.03;;;;;;;15.61;100.00;99533.13;5008745;28;20053;-79
2022/05/24 07:12:42;;;;;;;6.90;5.45;;;;;;;15.60;100.00;99534.03;5002951;28;21051;-80
2022/05/24 07:15:09;;;;;;;7.25;6.03;;;;;;;15.67;100.00;99529.25;5027207;28;20044;-78
2022/05/24 07:17:35;;;;;;;6.32;5.25;;;;;;;15.70;100.00;99523.72;5009694;28;20050;-78
2022/05/24 07:20:02;;;;;;;7.07;5.63;;;;;;;15.65;100.00;99537.31;5011571;28;20053;-79
2022/05/24 07:22:29;;;;;;;8.32;5.43;;;;;;;15.71;100.00;99526.28;5010794;28;20048;-79
2022/05/24 07:24:55;;;;;;;8.25;6.25;;;;;;;15.70;100.00;99534.38;5013265;28;20062;-79
2022/05/24 07:27:22;;;;;;;5.72;5.20;;;;;;;15.76;100.00;99534.88;4995512;28;20045;-80
2022/05/24 07:29:50;;;;;;;7.85;6.32;;;;;;;15.91;100.00;99537.56;4994703;28;20045;-78
2022/05/24 07:32:16;;;;;;;7.75;6.68;;;;;;;16.05;100.00;99546.44;5025751;28;20038;-80
2022/05/24 07:34:43;;;;;;;7.90;5.50;;;;;;;16.10;100.00;99553.28;5008697;28;20049;-79
2022/05/24 07:37:14;;;;;;;11.73;6.28;;;;;;;16.17;100.00;99562.63;5010641;28;20034;-80
2022/05/24 07:39:41;;;;;;;7.35;6.15;;;;;;;16.22;100.00;99565.84;4995087;28;20066;-80
2022/05/24 07:47:41;;;;;;;6.18;5.25;;;;;;;16.26;100.00;99576.25;5007820;28;20084;-79
2022/05/24 07:50:08;;;;;;;5.88;5.22;;;;;;;16.25;100.00;99577.22;4997075;28;20046;-80
2022/05/24 07:52:35;;;;;;;6.55;5.53;;;;;;;16.32;100.00;99578.56;5009192;28;20723;-78
2022/05/24 07:55:02;;;;;;;7.70;5.53;;;;;;;16.31;100.00;99584.84;5009981;28;20132;-78
2022/05/24 07:57:30;;;;;;;7.10;5.90;;;;;;;16.32;100.00;99591.03;5010401;28;20065;-80
2022/05/24 08:00:03;;;;;;;6.85;4.63;;;;;;;16.29;100.00;99592.03;5016210;28;20042;-78
2022/05/24 08:02:30;;;;;;;9.50;5.28;;;;;;;16.43;100.00;99591.22;4999077;28;20155;-79
2022/05/24 08:04:56;;;;;;;7.38;5.07;;;;;;;16.51;100.00;99598.75;4993121;28;20069;-79
2022/05/24 08:07:23;;;;;;;6.45;4.70;;;;;;;16.59;100.00;99601.78;5011425;28;20037;-80
2022/05/24 08:09:49;;;;;;;5.25;4.72;;;;;;;16.56;100.00;99600.19;5013106;28;20069;-80
2022/05/24 08:12:16;;;;;;;5.18;4.18;;;;;;;16.57;100.00;99601.91;4998055;28;20050;-79
2022/05/24 08:14:44;;;;;;;6.13;4.85;;;;;;;16.64;100.00;99602.34;5032088;28;20050;-79
2022/05/24 08:17:11;;;;;;;4.43;3.75;;;;;;;16.75;100.00;99607.91;4999100;28;20052;-79
2022/05/24 08:19:38;;;;;;;5.38;3.70;;;;;;;16.77;100.00;99602.47;4998831;28;20042;-81
2022/05/24 08:22:05;;;;;;;5.22;3.38;;;;;;;16.81;100.00;99614.66;5009808;28;20143;-80
2022/05/24 08:24:33;;;;;;;4.43;3.13;;;;;;;16.95;100.00;99612.00;4993531;28;20052;-79
2022/05/24 08:26:59;;;;;;;5.63;3.90;;;;;;;16.98;100.00;99611.78;4995147;28;20086;-79
2022/05/24 08:29:26;;;;;;;4.85;4.28;;;;;;;16.92;100.00;99608.66;4975749;28;20050;-79
2022/05/24 08:31:53;;;;;;;3.90;3.10;;;;;;;17.02;100.00;99623.13;4992967;28;20463;-79
2022/05/24 08:34:19;;;;;;;4.13;3.00;;;;;;;17.08;98.26;99622.75;4992193;28;20613;-79
2022/05/24 08:36:46;;;;;;;4.40;2.65;;;;;;;17.19;96.81;99616.72;4998697;28;20049;-80
2022/05/24 08:39:13;;;;;;;3.67;2.63;;;;;;;17.36;99.18;99617.34;5005235;28;20030;-81
2022/05/24 08:42:04;;;;;;;4.07;2.65;;;;;;;17.48;97.64;99614.81;5006545;28;20046;-80
2022/05/24 08:50:31;;;;;;;2.75;2.55;;;;;;;17.36;94.76;99636.03;4990513;28;20551;-79
2022/05/24 08:53:04;;;;;;;2.90;2.40;;;;;;;17.22;92.38;99643.22;4991222;28;20506;-80
2022/05/24 08:55:38;;;;;;;3.05;2.45;;;;;;;17.14;94.88;99643.69;4977374;28;20053;-80
2022/05/24 08:58:10;;;;;;;3.50;2.33;;;;;;;17.10;94.91;99651.06;4993650;28;20392;-80
2022/05/24 09:00:39;;;;;;;2.42;2.00;;;;;;;17.00;94.20;99657.06;4977449;28;20574;-80
2022/05/24 09:03:08;;;;;;;3.58;2.42;;;;;;;16.93;93.71;99650.41;5009209;28;20066;-79
2022/05/24 09:05:41;;;;;;;3.45;2.17;;;;;;;16.92;93.19;99648.69;4996034;28;20053;-79
2022/05/24 09:08:38;;;;;;;3.15;2.58;;;;;;;16.86;93.78;99658.78;5013427;28;20053;-79
2022/05/24 09:11:09;;;;;;;2.72;2.08;;;;;;;16.83;92.91;99658.97;4998252;28;20395;-80
2022/05/24 09:13:50;;;;;;;3.92;2.28;;;;;;;16.83;93.93;99661.66;5006374;28;20049;-81
2022/05/24 09:16:17;;;;;;;4.55;2.15;;;;;;;17.10;91.28;99648.38;5010219;28;20041;-80
2022/05/24 09:19:04;;;;;;;2.92;2.50;;;;;;;17.67;88.34;99658.06;5013353;28;20049;-79
2022/05/24 09:21:32;;;;;;;3.25;2.30;;;;;;;18.30;87.03;99652.06;4993047;28;20388;-79
2022/05/24 09:24:19;;;;;;;4.45;2.53;;;;;;;18.84;81.01;99660.81;4990067;28;20145;-81
2022/05/24 09:27:11;;;;;;;2.17;1.92;;;;;;;19.11;78.98;99659.81;5005807;28;20049;-81
2022/05/24 09:30:05;;;;;;;3.25;2.47;;;;;;;19.37;75.26;99664.13;5022446;28;20069;-81
2022/05/24 09:32:38;;;;;;;1.95;1.75;;;;;;;19.33;74.68;99667.13;5020276;28;20939;-81
2022/05/24 09:35:18;;;;;;;2.83;2.10;;;;;;;19.27;74.67;99676.50;4981469;28;20506;-81
2022/05/24 09:38:07;;;;;;;3.88;2.10;;;;;;;19.15;76.13;99685.38;5011027;28;22539;-83
2022/05/24 09:40:55;;;;;;;3.75;1.90;;;;;;;18.95;74.33;99692.16;5015225;28;20042;-83
2022/05/24 09:43:29;;;;;;;2.42;1.75;;;;;;;18.96;75.74;99687.66;5018056;28;20125;-80
2022/05/24 09:46:00;;;;;;;3.10;2.28;;;;;;;18.99;74.38;99693.63;4999133;28;20137;-80
2022/05/24 09:48:29;;;;;;;3.20;1.80;;;;;;;19.04;74.81;99696.00;4999789;28;20092;-81
2022/05/24 09:50:57;;;;;;;4.10;1.90;;;;;;;18.87;70.04;99691.84;5000431;28;20077;-81
2022/05/24 09:53:27;;;;;;;2.00;1.75;;;;;;;19.28;72.20;99691.59;5014492;28;20092;-81
2022/05/24 09:56:03;;;;;;;2.25;1.80;;;;;;;19.52;70.33;99685.44;5002521;28;20046;-81
2022/05/24 09:58:59;;;;;;;1.90;1.80;;;;;;;19.83;70.23;99690.25;5000336;28;20071;-80
2022/05/24 10:01:40;;;;;;;2.42;1.63;;;;;;;20.33;68.42;99692.78;4995860;28;20046;-81
2022/05/24 10:04:35;;;;;;;5.00;2.10;;;;;;;20.20;65.57;99703.59;5011764;28;20070;-79
2022/05/24 10:07:19;;;;;;;2.17;1.65;;;;;;;20.22;66.38;99704.34;5027618;28;20073;-79
2022/05/24 10:10:10;;;;;;;2.25;2.05;;;;;;;20.10;67.10;99702.59;5015436;28;20038;-80
2022/05/24 10:13:14;;;;;;;3.05;1.63;;;;;;;20.34;68.52;99697.16;5014354;28;20066;-81
2022/05/24 10:16:17;;;;;;;2.10;1.60;;;;;;;20.69;63.44;99700.75;5015582;28;20038;-79
2022/05/24 10:19:15;;;;;;;2.22;1.40;;;;;;;21.19;61.48;99700.41;5004769;28;20041;-81
2022/05/24 10:21:59;;;;;;;2.28;1.90;;;;;;;21.84;60.57;99678.94;5016553;28;20050;-80
2022/05/24 10:24:56;;;;;;;2.08;1.60;;;;;;;22.22;59.94;99680.31;5013535;28;20046;-81
2022/05/24 10:27:59;;;;;;;2.50;1.80;;;;;;;22.10;58.05;99697.47;5011638;28;20052;-78
2022/05/24 10:30:31;;;;;;;2.80;2.00;;;;;;;22.02;57.43;99681.94;4995198;28;20050;-81
2022/05/24 10:39:20;;;;;;;1.95;1.50;;;;;;;23.29;54.65;99692.63;5012396;28;20034;-79
2022/05/24 10:42:13;;;;;;;2.13;1.70;;;;;;;22.87;53.92;99708.88;4994223;28;20434;-81
2022/05/24 10:44:47;;;;;;;2.67;1.65;;;;;;;22.44;53.85;99709.78;5013736;28;20045;-81
2022/05/24 10:47:29;;;;;;;1.80;1.60;;;;;;;22.21;56.21;99720.81;5029699;28;20042;-79
2022/05/24 10:50:01;;;;;;;1.85;1.65;;;;;;;21.92;58.06;99724.88;4997528;28;20095;-80
2022/05/24 10:52:52;;;;;;;2.40;1.40;;;;;;;22.05;59.51;99715.81;5013421;28;20057;-79
2022/05/24 10:55:21;;;;;;;2.17;1.40;;;;;;;21.98;57.51;99715.47;5015959;28;20185;-79
2022/05/24 10:58:04;;;;;;;2.42;1.70;;;;;;;22.41;56.03;99699.31;5006490;28;20050;-78
2022/05/24 11:00:37;;;;;;;2.10;1.42;;;;;;;22.72;55.06;99702.94;4997740;28;20129;-79
2022/05/24 11:03:09;;;;;;;2.30;1.65;;;;;;;22.76;55.15;99700.81;4996750;28;20260;-78
2022/05/24 11:05:38;;;;;;;2.40;1.50;;;;;;;22.72;52.93;99697.53;5029795;28;20057;-78
2022/05/24 11:08:31;;;;;;;1.50;1.20;;;;;;;22.73;53.89;99701.94;5012350;28;20052;-78
2022/05/24 11:11:04;;;;;;;2.30;1.50;;;;;;;22.70;54.75;99714.78;5014132;28;20056;-78
2022/05/24 11:13:41;;;;;;;3.40;1.63;;;;;;;22.60;53.24;99713.88;5027824;28;20041;-79
2022/05/24 11:16:13;;;;;;;2.13;1.30;;;;;;;22.37;54.77;99711.31;5011805;28;20510;-78
2022/05/24 11:18:41;;;;;;;1.55;1.10;;;;;;;22.19;53.86;99710.16;4993354;28;20042;-78
2022/05/24 11:21:14;;;;;;;1.83;1.40;;;;;;;22.07;55.55;99706.66;4994737;28;20435;-78
2022/05/24 11:23:48;;;;;;;3.80;1.40;;;;;;;22.05;56.79;99713.13;5008495;28;20041;-78
2022/05/24 11:26:20;;;;;;;1.73;1.17;;;;;;;22.09;57.83;99711.91;4994466;28;20427;-77
2022/05/24 11:28:52;;;;;;;1.73;1.40;;;;;;;22.03;55.78;99715.06;5009590;28;20049;-77
2022/05/24 11:31:40;;;;;;;2.63;1.20;;;;;;;21.84;57.37;99724.66;4997168;28;20042;-78
2022/05/24 11:34:21;;;;;;;2.35;1.35;;;;;;;21.71;56.96;99728.50;5007182;28;20046;-77
2022/05/24 11:37:04;;;;;;;2.42;1.58;;;;;;;21.79;55.49;99723.34;5013722;28;20077;-78
2022/05/24 11:39:34;;;;;;;2.20;1.50;;;;;;;22.00;57.04;99728.78;4999288;28;20039;-78
2022/05/24 11:42:32;;;;;;;1.95;1.20;;;;;;;22.09;54.32;99726.22;4999939;28;20056;-79
2022/05/24 11:45:01;;;;;;;2.03;1.30;;;;;;;22.19;55.91;99726.31;5012678;28;20542;-79
2022/05/24 11:47:33;;;;;;;2.88;1.90;;;;;;;22.78;53.70;99720.38;4994328;28;20046;-78
2022/05/24 11:50:09;;;;;;;2.47;1.70;;;;;;;23.49;52.58;99715.94;5011555;28;20038;-80
2022/05/24 11:53:00;;;;;;;1.65;1.20;;;;;;;24.21;50.73;99724.78;4987421;28;20034;-79
2022/05/24 11:55:55;;;;;;;2.22;1.50;;;;;;;24.85;48.29;99724.19;5014326;28;20415;-80
2022/05/24 11:58:22;;;;;;;2.97;1.77;;;;;;;25.02;46.21;99720.75;5010277;28;20044;-78
2022/05/24 12:01:00;;;;;;;1.98;1.15;;;;;;;24.80;46.83;99730.03;5009149;28;20038;-79
2022/05/24 12:09:16;;;;;;;2.13;1.40;;;;;;;23.73;49.83;99739.06;4992698;28;20038;-80
2022/05/24 12:11:43;;;;;;;1.70;1.30;;;;;;;23.48;50.26;99743.06;5004047;28;20042;-79
2022/05/24 12:14:28;;;;;;;2.17;1.25;;;;;;;23.57;49.08;99731.44;5031909;28;20033;-80
2022/05/24 12:16:55;;;;;;;1.60;1.30;;;;;;;23.70;48.66;99742.84;5016642;28;20054;-79
2022/05/24 12:19:43;;;;;;;1.75;1.30;;;;;;;23.61;49.60;99730.19;5016756;28;20073;-79
2022/05/24 12:22:14;;;;;;;2.20;1.38;;;;;;;23.55;51.34;99736.97;5009170;28;20064;-80
2022/05/24 12:24:41;;;;;;;1.60;1.40;;;;;;;23.24;50.16;99740.66;4999747;28;20481;-78
2022/05/24 12:27:47;;;;;;;1.42;1.10;;;;;;;23.05;52.77;99745.97;4999511;28;20046;-79
2022/05/24 12:30:21;;;;;;;1.83;1.20;;;;;;;22.89;51.35;99739.22;5014524;28;20046;-79
2022/05/24 12:32:48;;;;;;;;;;;;;;;22.82;52.35;99745.22;4998423;28;20060;-79
2022/05/24 12:35:17;;;;;;;1.83;1.35;;;;;;;22.76;52.39;99747.44;4999029;28;19926;-78
2022/05/24 12:37:55;;;;;;;1.48;1.38;;;;;;;22.84;50.84;99748.63;5014039;28;20046;-80
2022/05/24 12:40:31;;;;;;;1.48;1.17;;;;;;;22.82;53.26;99747.91;5008086;28;20033;-80